CheckWX is a tool to help pilots better visualize weather data.  It is not intended as a substitute for an official pre-flight weather briefing.

05:47:40 UTC

LEMD TAF
Adolfo Suárez Madrid–Barajas Airport
Madrid, Spain
TAF LEMD 200500Z 2006/2112 VRB04KT CAVOK TX17/2015Z TNM00/2006Z TEMPO 2006/2008 35004KT TEMPO 2021/2106 35004KT

Feb-20@
06:00 UTC

Feb-20 @ 06:00 UTC

Feb-21@
12:00 UTC

Feb-21 @ 12:00 UTC

TAF LEMD 200500Z 2006/2112 VRB04KT CAVOK TX17/2015Z TNM00/2006Z
Wind
  • Variable at 4 KTS
Visibility
10,000+ meters
Cloud Levels
  • No significant clouds

Feb-20@
06:00 UTC

Feb-20 @ 06:00 UTC

Feb-20@
08:00 UTC

Feb-20 @ 08:00 UTC

TEMPO 2006/2008 35004KT

Temporary

TemporaryChanges expected for less than half the time period

Wind
  • 350° at 4 KTS

Feb-20@
21:00 UTC

Feb-20 @ 21:00 UTC

Feb-21@
06:00 UTC

Feb-21 @ 06:00 UTC

TEMPO 2021/2106 35004KT

Temporary

TemporaryChanges expected for less than half the time period

Wind
  • 350° at 4 KTS